Time,TemperatureF,DewpointF,PressureIn,WindDirection,WindDirectionDegrees,WindSpeedMPH,WindSpeedGustMPH,Humidity,HourlyPrecipIn,Conditions,Clouds,dailyrainin,SolarRadiationWatts/m^2,SoftwareType,DateUTC
2013-05-17 00:06:00,34.4,32.0,30.07,NNE,28,0.0,0.0,90,0.00,,,0.00,0,weatherlink.com 1.10,2013-05-17 04:06:00,
2013-05-17 00:21:00,34.4,32.0,30.07,NNE,28,0.0,0.0,91,0.00,,,0.00,0,weatherlink.com 1.10,2013-05-17 04:21:00,
2013-05-17 00:36:00,34.0,32.0,30.07,NNE,28,0.0,1.0,91,0.00,,,0.00,0,weatherlink.com 1.10,2013-05-17 04:36:00,
2013-05-17 00:51:00,33.8,32.0,30.08,NNE,28,0.0,0.0,91,0.00,,,0.00,0,weatherlink.com 1.10,2013-05-17 04:51:00,
2013-05-17 01:06:00,33.3,31.0,30.08,NNE,28,0.0,0.0,91,0.00,,,0.00,0,weatherlink.com 1.10,2013-05-17 05:06:00,
2013-05-17 01:22:00,33.0,31.0,30.09,NNE,28,0.0,2.0,91,0.00,,,0.00,0,weatherlink.com 1.10,2013-05-17 05:22:00,
2013-05-17 01:37:00,32.9,31.0,30.09,NNE,28,0.0,0.0,92,0.00,,,0.00,0,weatherlink.com 1.10,2013-05-17 05:37:00,
2013-05-17 01:52:00,32.6,31.0,30.08,NNE,28,0.0,0.0,92,0.00,,,0.00,0,weatherlink.com 1.10,2013-05-17 05:52:00,
2013-05-17 02:07:00,32.4,30.0,30.08,NNE,28,0.0,0.0,92,0.00,,,0.00,0,weatherlink.com 1.10,2013-05-17 06:07:00,
2013-05-17 02:22:00,32.9,31.0,30.09,NNE,28,0.0,0.0,93,0.00,,,0.00,0,weatherlink.com 1.10,2013-05-17 06:22:00,
2013-05-17 02:37:00,32.6,31.0,30.09,NNE,28,0.0,1.0,92,0.00,,,0.00,0,weatherlink.com 1.10,2013-05-17 06:37:00,
2013-05-17 02:52:00,32.9,31.0,30.09,NNE,28,0.0,0.0,93,0.00,,,0.00,0,weatherlink.com 1.10,2013-05-17 06:52:00,
2013-05-17 03:07:00,33.0,31.0,30.08,NNE,28,0.0,0.0,93,0.00,,,0.00,0,weatherlink.com 1.10,2013-05-17 07:07:00,
2013-05-17 03:22:00,33.5,32.0,30.09,NNE,28,1.0,2.0,93,0.00,,,0.00,0,weatherlink.com 1.10,2013-05-17 07:22:00,
2013-05-17 03:37:00,33.4,32.0,30.09,NNE,28,0.0,0.0,93,0.00,,,0.00,0,weatherlink.com 1.10,2013-05-17 07:37:00,
2013-05-17 03:52:00,33.4,32.0,30.09,NNE,28,0.0,0.0,93,0.00,,,0.00,0,weatherlink.com 1.10,2013-05-17 07:52:00,
2013-05-17 04:07:00,33.5,32.0,30.09,NNE,28,0.0,0.0,93,0.00,,,0.00,0,weatherlink.com 1.10,2013-05-17 08:07:00,
2013-05-17 04:22:00,33.5,32.0,30.09,NNE,28,0.0,0.0,93,0.00,,,0.00,0,weatherlink.com 1.10,2013-05-17 08:22:00,
2013-05-17 04:37:00,33.8,32.0,30.09,NNE,28,0.0,1.0,94,0.00,,,0.00,0,weatherlink.com 1.10,2013-05-17 08:37:00,
2013-05-17 04:52:00,34.2,33.0,30.09,NNE,28,0.0,0.0,94,0.00,,,0.00,0,weatherlink.com 1.10,2013-05-17 08:52:00,
2013-05-17 05:07:00,34.8,33.0,30.09,NNE,28,0.0,0.0,94,0.00,,,0.00,0,weatherlink.com 1.10,2013-05-17 09:07:00,
2013-05-17 05:22:00,35.7,34.0,30.10,NNE,28,0.0,0.0,95,0.00,,,0.00,0,weatherlink.com 1.10,2013-05-17 09:22:00,
2013-05-17 05:37:00,36.4,35.0,30.10,NNE,28,0.0,0.0,94,0.00,,,0.00,0,weatherlink.com 1.10,2013-05-17 09:37:00,
2013-05-17 05:52:00,36.5,35.0,30.11,NNE,28,0.0,1.0,93,0.00,,,0.00,0,weatherlink.com 1.10,2013-05-17 09:52:00,
2013-05-17 06:07:00,37.1,36.0,30.10,NNE,28,1.0,1.0,94,0.00,,,0.00,5,weatherlink.com 1.10,2013-05-17 10:07:00,
2013-05-17 06:22:00,37.0,35.0,30.11,NNE,28,0.0,0.0,93,0.00,,,0.00,9,weatherlink.com 1.10,2013-05-17 10:22:00,
2013-05-17 06:37:00,37.4,36.0,30.11,NNE,28,0.0,0.0,93,0.00,,,0.00,19,weatherlink.com 1.10,2013-05-17 10:37:00,
2013-05-17 06:52:00,38.2,37.0,30.12,NNE,28,0.0,0.0,94,0.00,,,0.00,39,weatherlink.com 1.10,2013-05-17 10:52:00,
2013-05-17 07:07:00,39.1,37.0,30.12,NNE,28,0.0,1.0,93,0.00,,,0.00,58,weatherlink.com 1.10,2013-05-17 11:07:00,
2013-05-17 07:22:00,39.9,38.0,30.13,NNE,28,0.0,0.0,92,0.00,,,0.00,72,weatherlink.com 1.10,2013-05-17 11:22:00,
2013-05-17 07:37:00,40.7,39.0,30.13,NNE,28,0.0,0.0,92,0.00,,,0.00,97,weatherlink.com 1.10,2013-05-17 11:37:00,
2013-05-17 07:52:00,41.8,39.0,30.13,NNE,28,0.0,0.0,90,0.00,,,0.00,100,weatherlink.com 1.10,2013-05-17 11:52:00,
2013-05-17 08:07:00,42.8,39.0,30.14,NNE,28,0.0,1.0,87,0.00,,,0.00,67,weatherlink.com 1.10,2013-05-17 12:07:00,
2013-05-17 08:22:00,43.5,39.0,30.16,NNE,28,0.0,0.0,85,0.00,,,0.00,67,weatherlink.com 1.10,2013-05-17 12:22:00,
2013-05-17 08:37:00,43.8,39.0,30.16,NNE,28,0.0,0.0,83,0.00,,,0.00,46,weatherlink.com 1.10,2013-05-17 12:37:00,
2013-05-17 08:53:00,44.1,40.0,30.17,NNE,28,0.0,2.0,84,0.00,,,0.00,69,weatherlink.com 1.10,2013-05-17 12:53:00,
2013-05-17 09:08:00,44.5,40.0,30.17,NNE,28,1.0,3.0,85,0.00,,,0.00,127,weatherlink.com 1.10,2013-05-17 13:08:00,
2013-05-17 09:23:00,44.8,40.0,30.17,NNE,30,3.0,3.0,83,0.00,,,0.00,121,weatherlink.com 1.10,2013-05-17 13:23:00,
2013-05-17 09:38:00,45.0,40.0,30.17,NE,34,0.0,2.0,82,0.00,,,0.00,118,weatherlink.com 1.10,2013-05-17 13:38:00,
2013-05-17 09:53:00,45.1,40.0,30.17,NE,34,1.0,4.0,81,0.00,,,0.00,197,weatherlink.com 1.10,2013-05-17 13:53:00,
2013-05-17 10:08:00,45.8,40.0,30.17,NE,34,0.0,2.0,80,0.00,,,0.00,236,weatherlink.com 1.10,2013-05-17 14:08:00,
2013-05-17 10:23:00,46.5,40.0,30.16,NNE,31,2.0,4.0,79,0.00,,,0.00,334,weatherlink.com 1.10,2013-05-17 14:23:00,
2013-05-17 10:38:00,47.5,40.0,30.16,NE,46,4.0,4.0,76,0.00,,,0.00,353,weatherlink.com 1.10,2013-05-17 14:38:00,
2013-05-17 10:53:00,47.8,40.0,30.16,NE,38,1.0,5.0,75,0.00,,,0.00,508,weatherlink.com 1.10,2013-05-17 14:53:00,
2013-05-17 11:23:00,48.9,41.0,30.15,East,80,5.0,8.0,73,0.00,,,0.00,693,weatherlink.com 1.10,2013-05-17 15:23:00,
2013-05-17 11:38:00,50.3,41.0,30.16,NNE,27,0.0,5.0,70,0.00,,,0.00,800,weatherlink.com 1.10,2013-05-17 15:38:00,
2013-05-17 11:53:00,51.2,42.0,30.16,NNE,31,0.0,5.0,70,0.00,,,0.00,932,weatherlink.com 1.10,2013-05-17 15:53:00,
2013-05-17 12:08:00,51.4,42.0,30.15,North,360,3.0,5.0,70,0.00,,,0.00,503,weatherlink.com 1.10,2013-05-17 16:08:00,
2013-05-17 12:23:00,51.8,41.0,30.15,NNE,26,1.0,6.0,67,0.00,,,0.00,726,weatherlink.com 1.10,2013-05-17 16:23:00,
2013-05-17 12:38:00,51.7,41.0,30.15,NE,51,2.0,6.0,67,0.00,,,0.00,522,weatherlink.com 1.10,2013-05-17 16:38:00,
2013-05-17 12:53:00,50.9,41.0,30.15,NE,53,3.0,7.0,68,0.00,,,0.00,552,weatherlink.com 1.10,2013-05-17 16:53:00,
2013-05-17 13:08:00,51.0,41.0,30.14,NNE,28,2.0,6.0,69,0.00,,,0.00,577,weatherlink.com 1.10,2013-05-17 17:08:00,
2013-05-17 13:23:00,52.3,42.0,30.14,ENE,57,2.0,6.0,68,0.00,,,0.00,933,weatherlink.com 1.10,2013-05-17 17:23:00,
2013-05-17 13:38:00,52.4,41.0,30.13,NE,46,4.0,8.0,66,0.00,,,0.00,912,weatherlink.com 1.10,2013-05-17 17:38:00,
2013-05-17 13:53:00,51.7,41.0,30.13,NW,306,2.0,10.0,67,0.00,,,0.00,925,weatherlink.com 1.10,2013-05-17 17:53:00,
2013-05-17 14:08:00,51.6,41.0,30.13,NE,55,4.0,7.0,68,0.00,,,0.00,717,weatherlink.com 1.10,2013-05-17 18:08:00,
2013-05-17 14:23:00,52.6,42.0,30.13,NNW,330,3.0,6.0,68,0.00,,,0.00,854,weatherlink.com 1.10,2013-05-17 18:23:00,
2013-05-17 14:38:00,53.7,42.0,30.12,North,360,1.0,5.0,64,0.00,,,0.00,949,weatherlink.com 1.10,2013-05-17 18:38:00,
2013-05-17 14:53:00,54.3,42.0,30.13,ENE,72,1.0,6.0,63,0.00,,,0.00,429,weatherlink.com 1.10,2013-05-17 18:53:00,
2013-05-17 15:09:00,53.0,41.0,30.12,North,350,2.0,5.0,65,0.00,,,0.00,362,weatherlink.com 1.10,2013-05-17 19:09:00,
2013-05-17 15:23:00,53.2,41.0,30.12,NE,39,1.0,5.0,63,0.00,,,0.00,621,weatherlink.com 1.10,2013-05-17 19:23:00,
2013-05-17 15:38:00,53.0,41.0,30.12,North,5,1.0,6.0,65,0.00,,,0.00,490,weatherlink.com 1.10,2013-05-17 19:38:00,
2013-05-17 15:53:00,53.6,42.0,30.12,NNE,23,3.0,6.0,64,0.00,,,0.00,617,weatherlink.com 1.10,2013-05-17 19:53:00,
2013-05-17 16:08:00,52.5,41.0,30.12,ENE,61,3.0,7.0,65,0.00,,,0.00,527,weatherlink.com 1.10,2013-05-17 20:08:00,
2013-05-17 16:23:00,50.8,41.0,30.12,NE,55,3.0,5.0,70,0.00,,,0.00,431,weatherlink.com 1.10,2013-05-17 20:23:00,
2013-05-17 16:38:00,50.2,41.0,30.12,NE,52,4.0,6.0,70,0.00,,,0.00,494,weatherlink.com 1.10,2013-05-17 20:38:00,
2013-05-17 16:53:00,49.7,41.0,30.11,NNE,17,2.0,6.0,71,0.00,,,0.00,469,weatherlink.com 1.10,2013-05-17 20:53:00,
2013-05-17 17:09:00,51.2,42.0,30.10,NE,43,1.0,5.0,70,0.00,,,0.00,369,weatherlink.com 1.10,2013-05-17 21:09:00,
2013-05-17 17:24:00,51.9,41.0,30.10,ENE,65,1.0,5.0,67,0.00,,,0.00,575,weatherlink.com 1.10,2013-05-17 21:24:00,
2013-05-17 17:39:00,52.5,41.0,30.09,North,11,2.0,7.0,65,0.00,,,0.00,186,weatherlink.com 1.10,2013-05-17 21:39:00,
2013-05-17 17:54:00,51.9,41.0,30.10,NE,56,4.0,6.0,67,0.00,,,0.00,272,weatherlink.com 1.10,2013-05-17 21:54:00,
2013-05-17 18:09:00,51.1,41.0,30.09,NE,36,2.0,4.0,68,0.00,,,0.00,204,weatherlink.com 1.10,2013-05-17 22:09:00,
2013-05-17 18:24:00,51.4,41.0,30.09,ENE,57,1.0,4.0,68,0.00,,,0.00,121,weatherlink.com 1.10,2013-05-17 22:24:00,
2013-05-17 18:39:00,51.5,41.0,30.09,NE,34,2.0,5.0,68,0.00,,,0.00,113,weatherlink.com 1.10,2013-05-17 22:39:00,
2013-05-17 18:54:00,51.5,41.0,30.09,East,92,2.0,5.0,68,0.00,,,0.00,114,weatherlink.com 1.10,2013-05-17 22:54:00,
2013-05-17 19:09:00,51.2,41.0,30.09,NE,52,2.0,4.0,69,0.00,,,0.00,70,weatherlink.com 1.10,2013-05-17 23:09:00,
2013-05-17 19:24:00,51.1,41.0,30.09,NE,52,0.0,4.0,69,0.00,,,0.00,58,weatherlink.com 1.10,2013-05-17 23:24:00,
2013-05-17 19:39:00,51.0,41.0,30.08,NE,52,1.0,3.0,69,0.00,,,0.00,58,weatherlink.com 1.10,2013-05-17 23:39:00,
2013-05-17 19:54:00,51.2,42.0,30.08,NE,52,0.0,3.0,70,0.00,,,0.00,46,weatherlink.com 1.10,2013-05-17 23:54:00,
2013-05-17 20:09:00,51.4,42.0,30.08,NE,52,0.0,2.0,70,0.00,,,0.00,37,weatherlink.com 1.10,2013-05-18 00:09:00,
2013-05-17 20:24:00,51.4,43.0,30.09,NE,52,1.0,1.0,72,0.00,,,0.00,37,weatherlink.com 1.10,2013-05-18 00:24:00,
2013-05-17 20:39:00,51.2,42.0,30.09,NE,52,0.0,2.0,72,0.00,,,0.00,32,weatherlink.com 1.10,2013-05-18 00:39:00,
2013-05-17 20:54:00,50.7,42.0,30.09,NE,52,0.0,2.0,73,0.00,,,0.00,19,weatherlink.com 1.10,2013-05-18 00:54:00,
2013-05-17 21:09:00,50.3,42.0,30.10,NE,52,0.0,1.0,74,0.00,,,0.00,7,weatherlink.com 1.10,2013-05-18 01:09:00,
2013-05-17 21:24:00,49.6,42.0,30.10,NE,52,0.0,1.0,75,0.00,,,0.00,0,weatherlink.com 1.10,2013-05-18 01:24:00,
2013-05-17 21:39:00,48.9,42.0,30.10,NE,52,0.0,0.0,77,0.00,,,0.00,0,weatherlink.com 1.10,2013-05-18 01:39:00,
2013-05-17 21:54:00,48.1,42.0,30.11,NE,52,0.0,0.0,79,0.00,,,0.00,0,weatherlink.com 1.10,2013-05-18 01:54:00,
2013-05-17 22:09:00,47.6,42.0,30.11,NE,52,0.0,0.0,80,0.00,,,0.00,0,weatherlink.com 1.10,2013-05-18 02:09:00,
2013-05-17 22:24:00,47.4,42.0,30.12,NE,52,0.0,0.0,80,0.00,,,0.00,0,weatherlink.com 1.10,2013-05-18 02:24:00,
2013-05-17 22:39:00,46.9,41.0,30.12,NE,52,0.0,0.0,81,0.00,,,0.00,0,weatherlink.com 1.10,2013-05-18 02:39:00,
2013-05-17 22:54:00,46.2,41.0,30.12,NE,52,0.0,0.0,83,0.00,,,0.00,0,weatherlink.com 1.10,2013-05-18 02:54:00,
2013-05-17 23:09:00,45.5,41.0,30.13,NE,52,0.0,0.0,84,0.00,,,0.00,0,weatherlink.com 1.10,2013-05-18 03:09:00,
2013-05-17 23:24:00,44.9,40.0,30.13,NE,52,0.0,1.0,84,0.00,,,0.00,0,weatherlink.com 1.10,2013-05-18 03:24:00,
2013-05-17 23:39:00,44.1,40.0,30.13,NE,52,0.0,0.0,85,0.00,,,0.00,0,weatherlink.com 1.10,2013-05-18 03:39:00,
2013-05-17 23:54:00,44.3,40.0,30.12,NE,52,1.0,2.0,86,0.00,,,0.00,0,weatherlink.com 1.10,2013-05-18 03:54:00,